Aliq, Pennsylvania
Current Conditions -  °F | °C
As of 1:51 PM on Monday 20 Oct 2014 (Local Time) from KPIT Reporting Station
Overcast Overcast  
Wind Chill: 13°   Ceiling: 10000
Heat Index: 13°   Visibility: 10mi
Dew Point:   Wind: 14mph
Humidity: 55%   Direction: 210°SSW
Pressure: 29.91"   Gusts: 23mph
Location:  40.5921°N, 80.3191°W
Report Text: KPIT 201751Z 21012G20KT 10SM FEW055 BKN100 OVC200 13/04 A2991 RMK AO2 SLP137 T01330044 10133 20061 58026
Loading
Personal Weather Stations






























Interactive Weather Map
Tropical Storm Tracking
New forecast layout! Learn more

10-Day Weather Forecast

Advertisements
Track Severe Weather on mobile